Detall de PIREP

Printer-friendly versionPDF version

[2009/11/15 08:01:00]
Flight IATA:CT2310
Pilot Number:026
Company ICAO:CAT
Aircraft Type:DC85/A
PAX:136
Departing Airport: LIEA
Destination Airport: LIMC
Alternate Airport:LIMF
Online: VATSIM
Route:POULP UL42 AJO UM858 GEN
Flight Level:FL320
No Slew and time accel
No pause
Crash detect
Detect pilot in Cockpit between each 30 and 45 minutes
08:01 Zero fuel Weight: 188327 Lbs, Fuel Weight: 27993 Lbs
08:01 VATSIM:LIEA 150720Z 22008KT CAVOK 17/11 Q2020
08:01 VATSIM:LIMC 150720Z VRB01KT 2500 BR OVC020 09/08 Q1021 NOSIG
08:01 VOICE CATALONIAN
08:06 Parking Brakes off
08:13 Take-off
08:13 Take off Weight: 215265 Lbs
08:13 Wind: 200º @ 010 Knots Heading: 206º
08:13 POS N40º 37´ 26´´ E008º 17´ 10´´
08:13 Gear Up: 185 Knots
08:13 Flaps:3 at 186 Knots
08:14 Flaps:2 at 189 Knots
08:14 Flaps:1 at 197 Knots
08:15 Flaps:0 at 165 Knots
08:26 TOC
08:26 Fuel Weight: 22176 Lb
0
8:28 Wind:039º@023 Knots Heading: 006º Ground Speed: 445 Knots Altitude 32270 ft
08:40 TOD
08:40 Fuel Weight: 18957 Lb
08:43 Wind:021º@014 Knots Heading: 002º Ground Speed: 382 Knots Altitude 27014 ft
08:58 Wind:355º@024 Knots Heading: 327º Ground Speed: 197 Knots Altitude 9202 ft
09:08 Flaps:1 at 146 Knots
09:08 Flaps:2 at 145 Knots
09:10 Flaps:3 at 197 Knots
09:10 Flaps:2 at 200 Knots
09:10 Gear Down: 215 Knots
09:11 Flaps:3 at 186 Knots
09:11 Flaps:4 at 162 Knots
09:11 Flaps:5 at 161 Knots
09:12 TouchDown:Rate -1003 ft/min Speed: 155 Knots
09:12 VATSIM:LIMC 150850Z 00000KT 2500 BR OVC025 10/08 Q1022 NOSIG
09:12 Land
09:12 Wind:294º@002 Knots
09:12 Heading: 334º
09:12 Flight Duration: 00:59
09:12 Landing Weight: 204472 Lbs
09:12 POS N45º 37´ 51´´ E008º 43´ 21´´
09:13 Parking brakes on
09:13 Block to Block Duration: 01:08
09:13 Final Fuel: 16082 Lbl
s
09:13 Spent Fuel: 11911 Lbls
09:13 Flight Length: 326 NM
09:13 TOD Land Length: 137 NM

Exportar CSV

Powered by Drupal - Modified by Danger4k